sensor_id;sensor_type;location;lat;lon;timestamp;temperature;humidity
54158;DHT22;40065;49.894;10.358;2024-01-06T00:01:58;4.70;99.90
54158;DHT22;40065;49.894;10.358;2024-01-06T00:07:00;4.70;99.90
54158;DHT22;40065;49.894;10.358;2024-01-06T00:12:02;4.70;99.90
54158;DHT22;40065;49.894;10.358;2024-01-06T00:17:04;4.60;99.90
54158;DHT22;40065;49.894;10.358;2024-01-06T00:22:06;4.40;99.90
54158;DHT22;40065;49.894;10.358;2024-01-06T00:27:08;4.30;99.90
54158;DHT22;40065;49.894;10.358;2024-01-06T00:32:10;4.50;99.90
54158;DHT22;40065;49.894;10.358;2024-01-06T00:37:12;4.50;99.90
54158;DHT22;40065;49.894;10.358;2024-01-06T00:42:14;4.50;99.90
54158;DHT22;40065;49.894;10.358;2024-01-06T00:47:15;4.50;99.90
54158;DHT22;40065;49.894;10.358;2024-01-06T00:52:17;4.50;99.90
54158;DHT22;40065;49.894;10.358;2024-01-06T00:57:19;4.60;99.90
54158;DHT22;40065;49.894;10.358;2024-01-06T01:02:26;4.60;99.90
54158;DHT22;40065;49.894;10.358;2024-01-06T01:07:28;4.60;99.90
54158;DHT22;40065;49.894;10.358;2024-01-06T01:12:29;4.50;99.90
54158;DHT22;40065;49.894;10.358;2024-01-06T01:17:31;4.50;99.90
54158;DHT22;40065;49.894;10.358;2024-01-06T01:22:33;4.40;99.90
54158;DHT22;40065;49.894;10.358;2024-01-06T01:27:35;4.20;99.90
54158;DHT22;40065;49.894;10.358;2024-01-06T01:32:37;4.20;99.90
54158;DHT22;40065;49.894;10.358;2024-01-06T01:37:39;4.00;99.90
54158;DHT22;40065;49.894;10.358;2024-01-06T01:42:43;3.90;99.90
54158;DHT22;40065;49.894;10.358;2024-01-06T01:47:45;3.80;99.90
54158;DHT22;40065;49.894;10.358;2024-01-06T01:52:48;3.60;99.90
54158;DHT22;40065;49.894;10.358;2024-01-06T01:57:50;3.60;99.90
54158;DHT22;40065;49.894;10.358;2024-01-06T02:02:52;3.50;99.90
54158;DHT22;40065;49.894;10.358;2024-01-06T02:07:55;3.60;99.90
54158;DHT22;40065;49.894;10.358;2024-01-06T02:12:56;3.50;99.90
54158;DHT22;40065;49.894;10.358;2024-01-06T02:17:58;3.40;99.90
54158;DHT22;40065;49.894;10.358;2024-01-06T02:23:00;3.30;99.90
54158;DHT22;40065;49.894;10.358;2024-01-06T02:28:03;3.40;99.90
54158;DHT22;40065;49.894;10.358;2024-01-06T02:33:05;3.20;99.90
54158;DHT22;40065;49.894;10.358;2024-01-06T02:38:07;3.20;99.90
54158;DHT22;40065;49.894;10.358;2024-01-06T02:43:10;3.30;99.90
54158;DHT22;40065;49.894;10.358;2024-01-06T02:48:12;3.30;99.90
54158;DHT22;40065;49.894;10.358;2024-01-06T02:53:14;3.80;99.90
54158;DHT22;40065;49.894;10.358;2024-01-06T02:58:16;3.90;99.90
54158;DHT22;40065;49.894;10.358;2024-01-06T03:03:18;3.90;99.90
54158;DHT22;40065;49.894;10.358;2024-01-06T03:08:20;3.90;99.90
54158;DHT22;40065;49.894;10.358;2024-01-06T03:13:22;3.90;99.90
54158;DHT22;40065;49.894;10.358;2024-01-06T03:18:24;3.80;99.90
54158;DHT22;40065;49.894;10.358;2024-01-06T03:23:26;3.70;99.90
54158;DHT22;40065;49.894;10.358;2024-01-06T03:28:28;3.80;99.90
54158;DHT22;40065;49.894;10.358;2024-01-06T03:33:30;4.00;99.90
54158;DHT22;40065;49.894;10.358;2024-01-06T03:38:32;4.00;99.90
54158;DHT22;40065;49.894;10.358;2024-01-06T03:43:34;4.10;99.90
54158;DHT22;40065;49.894;10.358;2024-01-06T03:48:36;4.10;99.90
54158;DHT22;40065;49.894;10.358;2024-01-06T03:53:38;4.10;99.90
54158;DHT22;40065;49.894;10.358;2024-01-06T03:58:40;4.00;99.90
54158;DHT22;40065;49.894;10.358;2024-01-06T04:03:42;4.00;99.90
54158;DHT22;40065;49.894;10.358;2024-01-06T04:08:44;4.00;99.90
54158;DHT22;40065;49.894;10.358;2024-01-06T04:13:46;3.90;99.90
54158;DHT22;40065;49.894;10.358;2024-01-06T04:18:47;3.90;99.90
54158;DHT22;40065;49.894;10.358;2024-01-06T04:23:50;3.80;99.90
54158;DHT22;40065;49.894;10.358;2024-01-06T04:28:51;3.80;99.90
54158;DHT22;40065;49.894;10.358;2024-01-06T04:33:53;3.80;99.90
54158;DHT22;40065;49.894;10.358;2024-01-06T04:38:55;3.70;99.90
54158;DHT22;40065;49.894;10.358;2024-01-06T04:43:57;3.60;99.90
54158;DHT22;40065;49.894;10.358;2024-01-06T04:48:59;3.50;99.90
54158;DHT22;40065;49.894;10.358;2024-01-06T04:54:01;3.30;99.90
54158;DHT22;40065;49.894;10.358;2024-01-06T04:59:03;3.10;99.90
54158;DHT22;40065;49.894;10.358;2024-01-06T05:04:04;3.00;99.90
54158;DHT22;40065;49.894;10.358;2024-01-06T05:09:07;3.00;99.90
54158;DHT22;40065;49.894;10.358;2024-01-06T05:14:09;3.00;99.90
54158;DHT22;40065;49.894;10.358;2024-01-06T05:19:11;2.90;99.90
54158;DHT22;40065;49.894;10.358;2024-01-06T05:24:13;3.00;99.90
54158;DHT22;40065;49.894;10.358;2024-01-06T05:29:15;2.90;99.90
54158;DHT22;40065;49.894;10.358;2024-01-06T05:34:17;2.90;99.90
54158;DHT22;40065;49.894;10.358;2024-01-06T05:39:19;2.90;99.90
54158;DHT22;40065;49.894;10.358;2024-01-06T05:44:21;2.80;99.90
54158;DHT22;40065;49.894;10.358;2024-01-06T05:49:23;2.50;99.90
54158;DHT22;40065;49.894;10.358;2024-01-06T05:54:26;2.30;99.90
54158;DHT22;40065;49.894;10.358;2024-01-06T05:59:28;2.30;99.90
54158;DHT22;40065;49.894;10.358;2024-01-06T06:04:30;2.40;99.90
54158;DHT22;40065;49.894;10.358;2024-01-06T06:09:32;2.30;99.90
54158;DHT22;40065;49.894;10.358;2024-01-06T06:14:36;2.30;99.90
54158;DHT22;40065;49.894;10.358;2024-01-06T06:19:38;2.40;99.90
54158;DHT22;40065;49.894;10.358;2024-01-06T06:24:40;2.30;99.90
54158;DHT22;40065;49.894;10.358;2024-01-06T06:29:42;2.40;99.90
54158;DHT22;40065;49.894;10.358;2024-01-06T06:34:44;2.60;99.90
54158;DHT22;40065;49.894;10.358;2024-01-06T06:39:46;2.70;99.90
54158;DHT22;40065;49.894;10.358;2024-01-06T06:44:48;2.80;99.90
54158;DHT22;40065;49.894;10.358;2024-01-06T06:49:50;3.00;99.90
54158;DHT22;40065;49.894;10.358;2024-01-06T06:54:52;3.20;99.90
54158;DHT22;40065;49.894;10.358;2024-01-06T06:59:54;3.30;99.90
54158;DHT22;40065;49.894;10.358;2024-01-06T07:04:56;3.30;99.90
54158;DHT22;40065;49.894;10.358;2024-01-06T07:10:00;3.40;99.90
54158;DHT22;40065;49.894;10.358;2024-01-06T07:15:02;3.50;99.90
54158;DHT22;40065;49.894;10.358;2024-01-06T07:20:07;3.50;99.90
54158;DHT22;40065;49.894;10.358;2024-01-06T07:25:09;3.50;99.90
54158;DHT22;40065;49.894;10.358;2024-01-06T07:30:12;3.50;99.90
54158;DHT22;40065;49.894;10.358;2024-01-06T07:35:14;3.60;99.90
54158;DHT22;40065;49.894;10.358;2024-01-06T07:40:16;3.60;99.90
54158;DHT22;40065;49.894;10.358;2024-01-06T07:45:19;3.70;99.90
54158;DHT22;40065;49.894;10.358;2024-01-06T07:50:21;3.70;99.90
54158;DHT22;40065;49.894;10.358;2024-01-06T07:55:22;3.70;99.90
54158;DHT22;40065;49.894;10.358;2024-01-06T08:00:24;3.70;99.90
54158;DHT22;40065;49.894;10.358;2024-01-06T08:05:27;3.80;99.90
54158;DHT22;40065;49.894;10.358;2024-01-06T08:10:29;3.90;99.90
54158;DHT22;40065;49.894;10.358;2024-01-06T08:15:31;3.90;99.90
54158;DHT22;40065;49.894;10.358;2024-01-06T08:20:34;4.10;99.90
54158;DHT22;40065;49.894;10.358;2024-01-06T08:25:36;4.20;99.90
54158;DHT22;40065;49.894;10.358;2024-01-06T08:30:38;4.20;99.90
54158;DHT22;40065;49.894;10.358;2024-01-06T08:35:40;4.40;99.90
54158;DHT22;40065;49.894;10.358;2024-01-06T08:40:42;4.50;99.90
54158;DHT22;40065;49.894;10.358;2024-01-06T08:45:44;4.60;99.90
54158;DHT22;40065;49.894;10.358;2024-01-06T08:50:46;4.70;99.90
54158;DHT22;40065;49.894;10.358;2024-01-06T08:55:48;4.70;99.90
54158;DHT22;40065;49.894;10.358;2024-01-06T09:00:50;4.70;99.90
54158;DHT22;40065;49.894;10.358;2024-01-06T09:05:53;4.70;99.90
54158;DHT22;40065;49.894;10.358;2024-01-06T09:10:55;4.70;99.90
54158;DHT22;40065;49.894;10.358;2024-01-06T09:15:59;4.70;99.90
54158;DHT22;40065;49.894;10.358;2024-01-06T09:21:04;4.70;99.90
54158;DHT22;40065;49.894;10.358;2024-01-06T09:26:06;4.70;99.90
54158;DHT22;40065;49.894;10.358;2024-01-06T09:31:08;4.80;99.90
54158;DHT22;40065;49.894;10.358;2024-01-06T09:36:10;5.00;99.90
54158;DHT22;40065;49.894;10.358;2024-01-06T09:41:14;5.30;99.90
54158;DHT22;40065;49.894;10.358;2024-01-06T09:46:26;5.50;99.90
54158;DHT22;40065;49.894;10.358;2024-01-06T09:51:28;5.70;99.90
54158;DHT22;40065;49.894;10.358;2024-01-06T09:56:30;5.80;99.90
54158;DHT22;40065;49.894;10.358;2024-01-06T10:01:33;5.80;99.90
54158;DHT22;40065;49.894;10.358;2024-01-06T10:06:35;5.70;99.90
54158;DHT22;40065;49.894;10.358;2024-01-06T10:11:38;5.70;99.90
54158;DHT22;40065;49.894;10.358;2024-01-06T10:16:43;5.40;99.90
54158;DHT22;40065;49.894;10.358;2024-01-06T10:21:45;5.40;99.90
54158;DHT22;40065;49.894;10.358;2024-01-06T10:26:46;5.40;99.90
54158;DHT22;40065;49.894;10.358;2024-01-06T10:31:48;5.40;99.90
54158;DHT22;40065;49.894;10.358;2024-01-06T10:36:56;5.60;99.90
54158;DHT22;40065;49.894;10.358;2024-01-06T10:41:59;5.60;99.90
54158;DHT22;40065;49.894;10.358;2024-01-06T10:47:03;5.60;99.90
54158;DHT22;40065;49.894;10.358;2024-01-06T10:52:05;5.50;99.90
54158;DHT22;40065;49.894;10.358;2024-01-06T10:57:08;5.40;99.90
54158;DHT22;40065;49.894;10.358;2024-01-06T11:02:11;5.50;99.90
54158;DHT22;40065;49.894;10.358;2024-01-06T11:07:16;5.50;99.90
54158;DHT22;40065;49.894;10.358;2024-01-06T11:12:18;5.60;99.90
54158;DHT22;40065;49.894;10.358;2024-01-06T11:17:52;5.60;99.90
54158;DHT22;40065;49.894;10.358;2024-01-06T11:23:19;5.60;99.90
54158;DHT22;40065;49.894;10.358;2024-01-06T11:28:24;5.60;99.90
54158;DHT22;40065;49.894;10.358;2024-01-06T11:33:27;5.50;99.90
54158;DHT22;40065;49.894;10.358;2024-01-06T11:38:33;5.50;99.90
54158;DHT22;40065;49.894;10.358;2024-01-06T11:43:38;5.60;99.90
54158;DHT22;40065;49.894;10.358;2024-01-06T11:48:41;5.50;99.90
54158;DHT22;40065;49.894;10.358;2024-01-06T11:53:47;5.60;99.90
54158;DHT22;40065;49.894;10.358;2024-01-06T11:58:50;5.40;99.90
54158;DHT22;40065;49.894;10.358;2024-01-06T12:03:54;5.80;99.90
54158;DHT22;40065;49.894;10.358;2024-01-06T12:09:04;6.10;99.90
54158;DHT22;40065;49.894;10.358;2024-01-06T12:14:06;6.30;99.90
54158;DHT22;40065;49.894;10.358;2024-01-06T12:19:08;6.30;99.90
54158;DHT22;40065;49.894;10.358;2024-01-06T12:24:18;6.30;99.90
54158;DHT22;40065;49.894;10.358;2024-01-06T12:29:26;6.30;99.90
54158;DHT22;40065;49.894;10.358;2024-01-06T12:34:30;6.30;99.90
54158;DHT22;40065;49.894;10.358;2024-01-06T12:39:32;6.30;99.90
54158;DHT22;40065;49.894;10.358;2024-01-06T12:44:34;6.10;99.90
54158;DHT22;40065;49.894;10.358;2024-01-06T12:49:38;6.20;99.90
54158;DHT22;40065;49.894;10.358;2024-01-06T12:54:40;6.20;99.90
54158;DHT22;40065;49.894;10.358;2024-01-06T12:59:46;6.30;99.90
54158;DHT22;40065;49.894;10.358;2024-01-06T13:04:48;6.60;99.90
54158;DHT22;40065;49.894;10.358;2024-01-06T13:09:50;6.50;99.90
54158;DHT22;40065;49.894;10.358;2024-01-06T13:14:52;6.50;99.90
54158;DHT22;40065;49.894;10.358;2024-01-06T13:19:54;6.30;99.90
54158;DHT22;40065;49.894;10.358;2024-01-06T13:24:56;6.30;99.90
54158;DHT22;40065;49.894;10.358;2024-01-06T13:29:58;6.30;99.90
54158;DHT22;40065;49.894;10.358;2024-01-06T13:35:00;6.40;99.90
54158;DHT22;40065;49.894;10.358;2024-01-06T13:40:07;6.40;99.90
54158;DHT22;40065;49.894;10.358;2024-01-06T13:45:09;6.30;99.90
54158;DHT22;40065;49.894;10.358;2024-01-06T13:50:13;6.40;99.90
54158;DHT22;40065;49.894;10.358;2024-01-06T13:55:15;6.40;99.90
54158;DHT22;40065;49.894;10.358;2024-01-06T14:00:17;6.40;99.90
54158;DHT22;40065;49.894;10.358;2024-01-06T14:05:22;6.40;99.90
54158;DHT22;40065;49.894;10.358;2024-01-06T14:10:24;6.50;99.90
54158;DHT22;40065;49.894;10.358;2024-01-06T14:15:26;6.40;99.90
54158;DHT22;40065;49.894;10.358;2024-01-06T14:20:28;6.40;99.90
54158;DHT22;40065;49.894;10.358;2024-01-06T14:25:30;6.30;99.90
54158;DHT22;40065;49.894;10.358;2024-01-06T14:30:32;6.00;99.90
54158;DHT22;40065;49.894;10.358;2024-01-06T14:35:34;6.00;99.90
54158;DHT22;40065;49.894;10.358;2024-01-06T14:40:36;5.90;99.90
54158;DHT22;40065;49.894;10.358;2024-01-06T14:45:38;5.70;99.90
54158;DHT22;40065;49.894;10.358;2024-01-06T14:50:40;5.60;99.90
54158;DHT22;40065;49.894;10.358;2024-01-06T14:55:42;5.60;99.90
54158;DHT22;40065;49.894;10.358;2024-01-06T15:00:44;5.50;99.90
54158;DHT22;40065;49.894;10.358;2024-01-06T15:05:46;5.40;99.90
54158;DHT22;40065;49.894;10.358;2024-01-06T15:10:48;5.30;99.90
54158;DHT22;40065;49.894;10.358;2024-01-06T15:15:50;5.20;99.90
54158;DHT22;40065;49.894;10.358;2024-01-06T15:20:56;5.20;99.90
54158;DHT22;40065;49.894;10.358;2024-01-06T15:25:58;5.10;99.90
54158;DHT22;40065;49.894;10.358;2024-01-06T15:31:00;5.20;99.90
54158;DHT22;40065;49.894;10.358;2024-01-06T15:36:02;5.10;99.90
54158;DHT22;40065;49.894;10.358;2024-01-06T15:41:06;5.10;99.90
54158;DHT22;40065;49.894;10.358;2024-01-06T15:46:08;5.00;99.90
54158;DHT22;40065;49.894;10.358;2024-01-06T15:51:10;5.00;99.90
54158;DHT22;40065;49.894;10.358;2024-01-06T15:56:13;4.90;99.90
54158;DHT22;40065;49.894;10.358;2024-01-06T16:01:15;4.90;99.90
54158;DHT22;40065;49.894;10.358;2024-01-06T16:06:17;4.90;99.90
54158;DHT22;40065;49.894;10.358;2024-01-06T16:11:19;4.90;99.90
54158;DHT22;40065;49.894;10.358;2024-01-06T16:16:21;4.90;99.90
54158;DHT22;40065;49.894;10.358;2024-01-06T16:21:24;5.00;99.90
54158;DHT22;40065;49.894;10.358;2024-01-06T16:26:26;4.90;99.90
54158;DHT22;40065;49.894;10.358;2024-01-06T16:31:28;4.90;99.90
54158;DHT22;40065;49.894;10.358;2024-01-06T16:36:32;4.70;99.90
54158;DHT22;40065;49.894;10.358;2024-01-06T16:41:34;4.60;99.90
54158;DHT22;40065;49.894;10.358;2024-01-06T16:46:36;4.50;99.90
54158;DHT22;40065;49.894;10.358;2024-01-06T16:51:37;4.40;99.90
54158;DHT22;40065;49.894;10.358;2024-01-06T16:56:39;4.30;99.90
54158;DHT22;40065;49.894;10.358;2024-01-06T17:01:42;4.20;99.90
54158;DHT22;40065;49.894;10.358;2024-01-06T17:06:44;4.00;99.90
54158;DHT22;40065;49.894;10.358;2024-01-06T17:11:45;4.00;99.90
54158;DHT22;40065;49.894;10.358;2024-01-06T17:16:48;3.90;99.90
54158;DHT22;40065;49.894;10.358;2024-01-06T17:21:50;4.00;99.90
54158;DHT22;40065;49.894;10.358;2024-01-06T17:26:51;4.00;99.90
54158;DHT22;40065;49.894;10.358;2024-01-06T17:31:53;3.90;99.90
54158;DHT22;40065;49.894;10.358;2024-01-06T17:36:57;3.90;99.90
54158;DHT22;40065;49.894;10.358;2024-01-06T17:41:59;3.70;99.90
54158;DHT22;40065;49.894;10.358;2024-01-06T17:47:02;3.50;99.90
54158;DHT22;40065;49.894;10.358;2024-01-06T17:52:04;3.50;99.90
54158;DHT22;40065;49.894;10.358;2024-01-06T17:57:06;3.60;99.90
54158;DHT22;40065;49.894;10.358;2024-01-06T18:02:08;3.60;99.90
54158;DHT22;40065;49.894;10.358;2024-01-06T18:07:10;3.60;99.90
54158;DHT22;40065;49.894;10.358;2024-01-06T18:12:12;3.80;99.90
54158;DHT22;40065;49.894;10.358;2024-01-06T18:17:14;3.70;99.90
54158;DHT22;40065;49.894;10.358;2024-01-06T18:22:16;3.70;99.90
54158;DHT22;40065;49.894;10.358;2024-01-06T18:27:18;3.80;99.90
54158;DHT22;40065;49.894;10.358;2024-01-06T18:32:20;3.80;99.90
54158;DHT22;40065;49.894;10.358;2024-01-06T18:37:22;3.80;99.90
54158;DHT22;40065;49.894;10.358;2024-01-06T18:42:24;3.80;99.90
54158;DHT22;40065;49.894;10.358;2024-01-06T18:47:26;3.70;99.90
54158;DHT22;40065;49.894;10.358;2024-01-06T18:52:30;3.70;99.90
54158;DHT22;40065;49.894;10.358;2024-01-06T18:57:33;3.70;99.90
54158;DHT22;40065;49.894;10.358;2024-01-06T19:02:35;3.80;99.90
54158;DHT22;40065;49.894;10.358;2024-01-06T19:07:37;3.80;99.90
54158;DHT22;40065;49.894;10.358;2024-01-06T19:12:39;4.00;99.90
54158;DHT22;40065;49.894;10.358;2024-01-06T19:17:41;3.90;99.90
54158;DHT22;40065;49.894;10.358;2024-01-06T19:22:47;4.00;99.90
54158;DHT22;40065;49.894;10.358;2024-01-06T19:28:07;4.00;99.90
54158;DHT22;40065;49.894;10.358;2024-01-06T19:33:09;4.10;99.90
54158;DHT22;40065;49.894;10.358;2024-01-06T19:38:11;4.10;99.90
54158;DHT22;40065;49.894;10.358;2024-01-06T19:43:13;4.00;99.90
54158;DHT22;40065;49.894;10.358;2024-01-06T19:48:16;4.00;99.90
54158;DHT22;40065;49.894;10.358;2024-01-06T19:53:18;4.00;99.90
54158;DHT22;40065;49.894;10.358;2024-01-06T19:58:20;4.00;99.90
54158;DHT22;40065;49.894;10.358;2024-01-06T20:03:23;3.90;99.90
54158;DHT22;40065;49.894;10.358;2024-01-06T20:08:25;3.90;99.90
54158;DHT22;40065;49.894;10.358;2024-01-06T20:13:27;3.90;99.90
54158;DHT22;40065;49.894;10.358;2024-01-06T20:18:29;4.00;99.90
54158;DHT22;40065;49.894;10.358;2024-01-06T20:23:32;4.00;99.90
54158;DHT22;40065;49.894;10.358;2024-01-06T20:28:34;3.90;99.90
54158;DHT22;40065;49.894;10.358;2024-01-06T20:33:36;3.90;99.90
54158;DHT22;40065;49.894;10.358;2024-01-06T20:38:39;3.90;99.90
54158;DHT22;40065;49.894;10.358;2024-01-06T20:43:42;4.00;99.90
54158;DHT22;40065;49.894;10.358;2024-01-06T20:48:44;4.00;99.90
54158;DHT22;40065;49.894;10.358;2024-01-06T20:53:48;4.10;99.90
54158;DHT22;40065;49.894;10.358;2024-01-06T20:58:50;4.10;99.90
54158;DHT22;40065;49.894;10.358;2024-01-06T21:03:52;4.10;99.90
54158;DHT22;40065;49.894;10.358;2024-01-06T21:08:56;4.00;99.90
54158;DHT22;40065;49.894;10.358;2024-01-06T21:13:58;4.10;99.90
54158;DHT22;40065;49.894;10.358;2024-01-06T21:19:00;4.00;99.90
54158;DHT22;40065;49.894;10.358;2024-01-06T21:24:02;4.00;99.90
54158;DHT22;40065;49.894;10.358;2024-01-06T21:29:04;3.90;99.90
54158;DHT22;40065;49.894;10.358;2024-01-06T21:34:07;3.90;99.90
54158;DHT22;40065;49.894;10.358;2024-01-06T21:39:09;4.00;99.90
54158;DHT22;40065;49.894;10.358;2024-01-06T21:44:11;4.10;99.90
54158;DHT22;40065;49.894;10.358;2024-01-06T21:49:13;4.10;99.90
54158;DHT22;40065;49.894;10.358;2024-01-06T21:54:15;4.10;99.90
54158;DHT22;40065;49.894;10.358;2024-01-06T21:59:17;4.10;99.90
54158;DHT22;40065;49.894;10.358;2024-01-06T22:04:19;4.20;99.90
54158;DHT22;40065;49.894;10.358;2024-01-06T22:09:21;4.10;99.90
54158;DHT22;40065;49.894;10.358;2024-01-06T22:14:23;4.10;99.90
54158;DHT22;40065;49.894;10.358;2024-01-06T22:19:26;4.10;99.90
54158;DHT22;40065;49.894;10.358;2024-01-06T22:24:28;4.10;99.90
54158;DHT22;40065;49.894;10.358;2024-01-06T22:29:30;4.10;99.90
54158;DHT22;40065;49.894;10.358;2024-01-06T22:34:32;4.10;99.90
54158;DHT22;40065;49.894;10.358;2024-01-06T22:39:34;4.10;99.90
54158;DHT22;40065;49.894;10.358;2024-01-06T22:44:36;4.00;99.90
54158;DHT22;40065;49.894;10.358;2024-01-06T22:49:38;4.00;99.90
54158;DHT22;40065;49.894;10.358;2024-01-06T22:54:40;3.90;99.90
54158;DHT22;40065;49.894;10.358;2024-01-06T22:59:42;3.90;99.90
54158;DHT22;40065;49.894;10.358;2024-01-06T23:04:46;3.90;99.90
54158;DHT22;40065;49.894;10.358;2024-01-06T23:09:48;3.80;99.90
54158;DHT22;40065;49.894;10.358;2024-01-06T23:14:50;3.80;99.90
54158;DHT22;40065;49.894;10.358;2024-01-06T23:19:53;3.90;99.90
54158;DHT22;40065;49.894;10.358;2024-01-06T23:24:55;3.80;99.90
54158;DHT22;40065;49.894;10.358;2024-01-06T23:29:57;3.80;99.90
54158;DHT22;40065;49.894;10.358;2024-01-06T23:34:59;3.80;99.90
54158;DHT22;40065;49.894;10.358;2024-01-06T23:40:01;3.90;99.90
54158;DHT22;40065;49.894;10.358;2024-01-06T23:45:03;3.90;99.90
54158;DHT22;40065;49.894;10.358;2024-01-06T23:50:06;3.90;99.90
54158;DHT22;40065;49.894;10.358;2024-01-06T23:55:09;3.90;99.90
